sensor_id;sensor_type;location;lat;lon;timestamp;pressure;altitude;pressure_sealevel;temperature;humidity
55604;BME280;41468;48.838;9.330;2023-05-10T00:02:07;97666.28;;;14.81;100.00
55604;BME280;41468;48.838;9.330;2023-05-10T00:04:45;97675.78;;;14.73;100.00
55604;BME280;41468;48.838;9.330;2023-05-10T00:07:12;97676.13;;;14.78;100.00
55604;BME280;41468;48.838;9.330;2023-05-10T00:09:38;97679.63;;;14.79;100.00
55604;BME280;41468;48.838;9.330;2023-05-10T00:12:05;97687.06;;;14.82;100.00
55604;BME280;41468;48.838;9.330;2023-05-10T00:14:32;97678.22;;;14.64;100.00
55604;BME280;41468;48.838;9.330;2023-05-10T00:16:58;97683.25;;;14.72;100.00
55604;BME280;41468;48.838;9.330;2023-05-10T00:19:25;97680.31;;;14.52;100.00
55604;BME280;41468;48.838;9.330;2023-05-10T00:21:52;97687.00;;;14.51;100.00
55604;BME280;41468;48.838;9.330;2023-05-10T00:24:19;97686.75;;;14.35;100.00
55604;BME280;41468;48.838;9.330;2023-05-10T00:26:45;97687.69;;;14.21;100.00
55604;BME280;41468;48.838;9.330;2023-05-10T00:29:12;97683.78;;;14.19;100.00
55604;BME280;41468;48.838;9.330;2023-05-10T00:31:39;97685.41;;;14.12;100.00
55604;BME280;41468;48.838;9.330;2023-05-10T00:34:05;97684.63;;;14.12;100.00
55604;BME280;41468;48.838;9.330;2023-05-10T00:36:32;97685.50;;;14.02;100.00
55604;BME280;41468;48.838;9.330;2023-05-10T00:38:59;97682.75;;;14.02;100.00
55604;BME280;41468;48.838;9.330;2023-05-10T00:41:26;97686.34;;;13.91;100.00
55604;BME280;41468;48.838;9.330;2023-05-10T00:43:52;97684.94;;;13.76;100.00
55604;BME280;41468;48.838;9.330;2023-05-10T00:46:20;97695.81;;;13.83;100.00
55604;BME280;41468;48.838;9.330;2023-05-10T00:48:47;97688.75;;;13.89;100.00
55604;BME280;41468;48.838;9.330;2023-05-10T00:51:13;97695.88;;;13.80;100.00
55604;BME280;41468;48.838;9.330;2023-05-10T00:53:40;97695.47;;;13.81;100.00
55604;BME280;41468;48.838;9.330;2023-05-10T00:56:07;97696.25;;;13.82;100.00
55604;BME280;41468;48.838;9.330;2023-05-10T00:58:34;97708.84;;;13.72;100.00
55604;BME280;41468;48.838;9.330;2023-05-10T01:01:05;97711.59;;;13.72;100.00
55604;BME280;41468;48.838;9.330;2023-05-10T01:03:33;97719.09;;;13.68;100.00
55604;BME280;41468;48.838;9.330;2023-05-10T01:06:07;97708.47;;;13.74;100.00
55604;BME280;41468;48.838;9.330;2023-05-10T01:08:34;97722.63;;;13.65;100.00
55604;BME280;41468;48.838;9.330;2023-05-10T01:11:11;97714.84;;;13.60;100.00
55604;BME280;41468;48.838;9.330;2023-05-10T01:13:41;97711.59;;;13.72;100.00
55604;BME280;41468;48.838;9.330;2023-05-10T01:16:09;97710.16;;;13.57;100.00
55604;BME280;41468;48.838;9.330;2023-05-10T01:18:40;97710.94;;;13.54;100.00
55604;BME280;41468;48.838;9.330;2023-05-10T01:27:17;97715.66;;;13.53;100.00
55604;BME280;41468;48.838;9.330;2023-05-10T01:32:51;97713.31;;;13.52;100.00
55604;BME280;41468;48.838;9.330;2023-05-10T01:35:37;97720.78;;;13.47;100.00
55604;BME280;41468;48.838;9.330;2023-05-10T01:38:20;97721.53;;;13.48;100.00
55604;BME280;41468;48.838;9.330;2023-05-10T01:41:12;97729.84;;;13.37;100.00
55604;BME280;41468;48.838;9.330;2023-05-10T01:43:54;97732.59;;;13.34;100.00
55604;BME280;41468;48.838;9.330;2023-05-10T01:46:35;97735.34;;;13.34;100.00
55604;BME280;41468;48.838;9.330;2023-05-10T01:49:08;97741.97;;;13.40;100.00
55604;BME280;41468;48.838;9.330;2023-05-10T01:51:40;97738.91;;;13.31;100.00
55604;BME280;41468;48.838;9.330;2023-05-10T01:54:09;97735.38;;;13.26;100.00
55604;BME280;41468;48.838;9.330;2023-05-10T01:56:39;97744.31;;;13.38;100.00
55604;BME280;41468;48.838;9.330;2023-05-10T01:59:12;97742.38;;;13.38;100.00
55604;BME280;41468;48.838;9.330;2023-05-10T02:01:39;97750.22;;;13.36;100.00
55604;BME280;41468;48.838;9.330;2023-05-10T02:04:07;97749.06;;;13.34;100.00
55604;BME280;41468;48.838;9.330;2023-05-10T02:06:37;97756.50;;;13.33;100.00
55604;BME280;41468;48.838;9.330;2023-05-10T02:09:05;97750.19;;;13.40;100.00
55604;BME280;41468;48.838;9.330;2023-05-10T02:11:33;97752.19;;;13.36;100.00
55604;BME280;41468;48.838;9.330;2023-05-10T02:14:00;97752.19;;;13.36;100.00
55604;BME280;41468;48.838;9.330;2023-05-10T02:16:27;97749.44;;;13.36;100.00
55604;BME280;41468;48.838;9.330;2023-05-10T02:18:58;97758.03;;;13.41;100.00
55604;BME280;41468;48.838;9.330;2023-05-10T02:21:27;97750.97;;;13.44;100.00
55604;BME280;41468;48.838;9.330;2023-05-10T02:23:55;97752.19;;;13.36;100.00
55604;BME280;41468;48.838;9.330;2023-05-10T02:26:23;97757.63;;;13.43;100.00
55604;BME280;41468;48.838;9.330;2023-05-10T02:28:53;97762.31;;;13.46;100.00
55604;BME280;41468;48.838;9.330;2023-05-10T02:31:20;97764.28;;;13.42;100.00
55604;BME280;41468;48.838;9.330;2023-05-10T02:33:48;97751.03;;;13.33;100.00
55604;BME280;41468;48.838;9.330;2023-05-10T02:36:16;97764.28;;;13.42;100.00
55604;BME280;41468;48.838;9.330;2023-05-10T02:38:44;97770.16;;;13.40;100.00
55604;BME280;41468;48.838;9.330;2023-05-10T02:41:12;97766.66;;;13.40;100.00
55604;BME280;41468;48.838;9.330;2023-05-10T02:43:40;97774.00;;;13.57;100.00
55604;BME280;41468;48.838;9.330;2023-05-10T02:46:07;97775.22;;;13.49;100.00
55604;BME280;41468;48.838;9.330;2023-05-10T02:48:33;97779.56;;;13.46;100.00
55604;BME280;41468;48.838;9.330;2023-05-10T02:51:04;97782.25;;;13.54;100.00
55604;BME280;41468;48.838;9.330;2023-05-10T02:53:34;97779.53;;;13.50;100.00
55604;BME280;41468;48.838;9.330;2023-05-10T02:56:05;97781.13;;;13.40;100.00
55604;BME280;41468;48.838;9.330;2023-05-10T02:58:35;97784.69;;;13.41;100.00
55604;BME280;41468;48.838;9.330;2023-05-10T03:01:02;97785.44;;;13.41;100.00
55604;BME280;41468;48.838;9.330;2023-05-10T03:03:29;97784.69;;;13.41;100.00
55604;BME280;41468;48.838;9.330;2023-05-10T03:05:56;97785.03;;;13.46;100.00
55604;BME280;41468;48.838;9.330;2023-05-10T03:08:23;97781.13;;;13.44;100.00
55604;BME280;41468;48.838;9.330;2023-05-10T03:13:37;97779.19;;;13.41;100.00
55604;BME280;41468;48.838;9.330;2023-05-10T03:16:10;97783.09;;;13.40;100.00
55604;BME280;41468;48.838;9.330;2023-05-10T03:18:44;97785.44;;;13.45;100.00
55604;BME280;41468;48.838;9.330;2023-05-10T03:21:22;97790.09;;;13.52;100.00
55604;BME280;41468;48.838;9.330;2023-05-10T03:23:58;97787.38;;;13.52;100.00
55604;BME280;41468;48.838;9.330;2023-05-10T03:26:27;97800.28;;;13.51;100.00
55604;BME280;41468;48.838;9.330;2023-05-10T03:28:55;97801.06;;;13.55;100.00
55604;BME280;41468;48.838;9.330;2023-05-10T03:31:23;97796.75;;;13.51;100.00
55604;BME280;41468;48.838;9.330;2023-05-10T03:33:52;97791.69;;;13.49;100.00
55604;BME280;41468;48.838;9.330;2023-05-10T03:36:19;97796.38;;;13.48;100.00
55604;BME280;41468;48.838;9.330;2023-05-10T03:38:45;97791.69;;;13.49;100.00
55604;BME280;41468;48.838;9.330;2023-05-10T03:41:12;97786.97;;;13.50;100.00
55604;BME280;41468;48.838;9.330;2023-05-10T03:43:39;97796.34;;;13.56;100.00
55604;BME280;41468;48.838;9.330;2023-05-10T03:46:06;97797.91;;;13.57;100.00
55604;BME280;41468;48.838;9.330;2023-05-10T03:48:39;97796.34;;;13.56;100.00
55604;BME280;41468;48.838;9.330;2023-05-10T03:51:06;97800.25;;;13.58;100.00
55604;BME280;41468;48.838;9.330;2023-05-10T03:53:33;97798.69;;;13.57;100.00
55604;BME280;41468;48.838;9.330;2023-05-10T03:55:59;97801.44;;;13.54;100.00
55604;BME280;41468;48.838;9.330;2023-05-10T03:58:26;97808.09;;;13.56;100.00
55604;BME280;41468;48.838;9.330;2023-05-10T04:00:53;97798.69;;;13.57;100.00
55604;BME280;41468;48.838;9.330;2023-05-10T04:03:20;97801.06;;;13.55;100.00
55604;BME280;41468;48.838;9.330;2023-05-10T04:05:47;97799.91;;;13.49;100.00
55604;BME280;41468;48.838;9.330;2023-05-10T04:08:13;97793.63;;;13.48;100.00
55604;BME280;41468;48.838;9.330;2023-05-10T04:10:42;97799.88;;;13.56;100.00
55604;BME280;41468;48.838;9.330;2023-05-10T04:13:09;97802.19;;;13.61;100.00
55604;BME280;41468;48.838;9.330;2023-05-10T04:15:37;97811.59;;;13.64;100.00
55604;BME280;41468;48.838;9.330;2023-05-10T04:18:04;97804.94;;;13.65;100.00
55604;BME280;41468;48.838;9.330;2023-05-10T04:20:33;97809.66;;;13.61;100.00
55604;BME280;41468;48.838;9.330;2023-05-10T04:23:00;97801.38;;;13.64;100.00
55604;BME280;41468;48.838;9.330;2023-05-10T04:25:27;97808.84;;;13.64;100.00
55604;BME280;41468;48.838;9.330;2023-05-10T04:27:54;97804.13;;;13.64;100.00
55604;BME280;41468;48.838;9.330;2023-05-10T04:30:20;97804.94;;;13.65;100.00
55604;BME280;41468;48.838;9.330;2023-05-10T04:32:47;97804.94;;;13.61;100.00
55604;BME280;41468;48.838;9.330;2023-05-10T04:35:20;97806.50;;;13.62;100.00
55604;BME280;41468;48.838;9.330;2023-05-10T04:37:47;97808.44;;;13.65;100.00
55604;BME280;41468;48.838;9.330;2023-05-10T04:40:14;97809.16;;;13.77;100.00
55604;BME280;41468;48.838;9.330;2023-05-10T04:42:41;97807.63;;;13.76;100.00
55604;BME280;41468;48.838;9.330;2023-05-10T04:45:08;97814.22;;;13.85;100.00
55604;BME280;41468;48.838;9.330;2023-05-10T04:47:36;97816.94;;;13.89;100.00
55604;BME280;41468;48.838;9.330;2023-05-10T04:50:04;97826.72;;;13.90;100.00
55604;BME280;41468;48.838;9.330;2023-05-10T04:52:31;97823.56;;;13.91;100.00
55604;BME280;41468;48.838;9.330;2023-05-10T04:54:57;97829.88;;;13.88;100.00
55604;BME280;41468;48.838;9.330;2023-05-10T04:57:24;97833.78;;;13.95;100.00
55604;BME280;41468;48.838;9.330;2023-05-10T04:59:51;97840.06;;;13.88;100.00
55604;BME280;41468;48.838;9.330;2023-05-10T05:02:17;97837.34;;;13.84;100.00
55604;BME280;41468;48.838;9.330;2023-05-10T05:04:44;97837.25;;;13.99;100.00
55604;BME280;41468;48.838;9.330;2023-05-10T05:07:10;97840.03;;;13.95;100.00
55604;BME280;41468;48.838;9.330;2023-05-10T05:09:43;97836.47;;;13.98;100.00
55604;BME280;41468;48.838;9.330;2023-05-10T05:12:10;97832.59;;;13.92;100.00
55604;BME280;41468;48.838;9.330;2023-05-10T05:14:40;97840.44;;;13.97;100.00
55604;BME280;41468;48.838;9.330;2023-05-10T05:17:07;97839.66;;;13.93;100.00
55604;BME280;41468;48.838;9.330;2023-05-10T05:19:34;97845.50;;;13.99;100.00
55604;BME280;41468;48.838;9.330;2023-05-10T05:22:02;97845.91;;;13.97;100.00
55604;BME280;41468;48.838;9.330;2023-05-10T05:24:28;97848.13;;;14.13;100.00
55604;BME280;41468;48.838;9.330;2023-05-10T05:27:06;97848.59;;;14.08;100.00
55604;BME280;41468;48.838;9.330;2023-05-10T05:29:33;97862.69;;;14.10;100.00
55604;BME280;41468;48.838;9.330;2023-05-10T05:31:59;97852.84;;;14.12;100.00
55604;BME280;41468;48.838;9.330;2023-05-10T05:34:26;97860.25;;;14.23;100.00
55604;BME280;41468;48.838;9.330;2023-05-10T05:36:53;97855.56;;;14.20;100.00
55604;BME280;41468;48.838;9.330;2023-05-10T05:39:20;97850.78;;;14.31;100.00
55604;BME280;41468;48.838;9.330;2023-05-10T05:41:47;97859.06;;;14.24;100.00
55604;BME280;41468;48.838;9.330;2023-05-10T05:44:13;97868.84;;;14.32;100.00
55604;BME280;41468;48.838;9.330;2023-05-10T05:46:40;97854.25;;;14.39;100.00
55604;BME280;41468;48.838;9.330;2023-05-10T05:49:07;97856.97;;;14.42;100.00
55604;BME280;41468;48.838;9.330;2023-05-10T05:51:33;97860.09;;;14.44;100.00
55604;BME280;41468;48.838;9.330;2023-05-10T05:54:02;97860.53;;;14.39;100.00
55604;BME280;41468;48.838;9.330;2023-05-10T05:56:30;97867.94;;;14.42;100.00
55604;BME280;41468;48.838;9.330;2023-05-10T05:58:57;97867.56;;;14.44;100.00
55604;BME280;41468;48.838;9.330;2023-05-10T06:01:24;97867.59;;;14.40;100.00
55604;BME280;41468;48.838;9.330;2023-05-10T06:03:50;97871.50;;;14.39;100.00
55604;BME280;41468;48.838;9.330;2023-05-10T06:06:18;97868.75;;;14.43;100.00
55604;BME280;41468;48.838;9.330;2023-05-10T06:08:45;97867.13;;;14.45;100.00
55604;BME280;41468;48.838;9.330;2023-05-10T06:11:12;97873.44;;;14.46;100.00
55604;BME280;41468;48.838;9.330;2023-05-10T06:13:38;97874.19;;;14.53;100.00
55604;BME280;41468;48.838;9.330;2023-05-10T06:16:06;97874.53;;;14.55;100.00
55604;BME280;41468;48.838;9.330;2023-05-10T06:18:32;97879.69;;;14.53;100.00
55604;BME280;41468;48.838;9.330;2023-05-10T06:20:59;97883.91;;;14.65;100.00
55604;BME280;41468;48.838;9.330;2023-05-10T06:23:26;97885.53;;;14.55;100.00
55604;BME280;41468;48.838;9.330;2023-05-10T06:25:52;97882.84;;;14.48;100.00
55604;BME280;41468;48.838;9.330;2023-05-10T06:28:19;97891.47;;;14.47;100.00
55604;BME280;41468;48.838;9.330;2023-05-10T06:30:46;97892.63;;;14.49;100.00
55604;BME280;41468;48.838;9.330;2023-05-10T06:33:13;97893.78;;;14.55;100.00
55604;BME280;41468;48.838;9.330;2023-05-10T06:35:39;97894.19;;;14.54;100.00
55604;BME280;41468;48.838;9.330;2023-05-10T06:38:06;97898.09;;;14.56;100.00
55604;BME280;41468;48.838;9.330;2023-05-10T06:40:33;97903.22;;;14.54;100.00
55604;BME280;41468;48.838;9.330;2023-05-10T06:42:59;97895.41;;;14.42;100.00
55604;BME280;41468;48.838;9.330;2023-05-10T06:45:26;97902.50;;;14.43;100.00
55604;BME280;41468;48.838;9.330;2023-05-10T06:47:53;97888.69;;;14.50;100.00
55604;BME280;41468;48.838;9.330;2023-05-10T06:50:20;97900.56;;;14.40;100.00
55604;BME280;41468;48.838;9.330;2023-05-10T06:52:46;97899.31;;;14.48;100.00
55604;BME280;41468;48.838;9.330;2023-05-10T06:55:13;97902.41;;;14.57;100.00
55604;BME280;41468;48.838;9.330;2023-05-10T06:57:40;97907.50;;;14.59;100.00
55604;BME280;41468;48.838;9.330;2023-05-10T07:00:07;97906.31;;;14.60;100.00
55604;BME280;41468;48.838;9.330;2023-05-10T07:02:36;97903.91;;;14.66;100.00
55604;BME280;41468;48.838;9.330;2023-05-10T07:05:03;97903.78;;;14.80;100.00
55604;BME280;41468;48.838;9.330;2023-05-10T07:07:29;97902.63;;;14.77;100.00
55604;BME280;41468;48.838;9.330;2023-05-10T07:10:01;97909.19;;;14.94;100.00
55604;BME280;41468;48.838;9.330;2023-05-10T07:12:28;97911.75;;;15.12;100.00
55604;BME280;41468;48.838;9.330;2023-05-10T07:14:55;97901.88;;;15.18;100.00
55604;BME280;41468;48.838;9.330;2023-05-10T07:17:21;97914.53;;;15.09;100.00
55604;BME280;41468;48.838;9.330;2023-05-10T07:19:48;97914.97;;;15.07;100.00
55604;BME280;41468;48.838;9.330;2023-05-10T07:22:15;97913.72;;;15.12;100.00
55604;BME280;41468;48.838;9.330;2023-05-10T07:24:44;97914.97;;;15.03;100.00
55604;BME280;41468;48.838;9.330;2023-05-10T07:27:10;97903.16;;;15.07;100.00
55604;BME280;41468;48.838;9.330;2023-05-10T07:29:37;97913.00;;;15.04;100.00
55604;BME280;41468;48.838;9.330;2023-05-10T07:32:04;97915.59;;;15.22;100.00
55604;BME280;41468;48.838;9.330;2023-05-10T07:34:32;97911.97;;;15.32;95.83
55604;BME280;41468;48.838;9.330;2023-05-10T07:36:59;97918.19;;;15.36;100.00
55604;BME280;41468;48.838;9.330;2023-05-10T07:39:26;97914.34;;;15.30;100.00
55604;BME280;41468;48.838;9.330;2023-05-10T07:41:54;97915.09;;;15.31;100.00
55604;BME280;41468;48.838;9.330;2023-05-10T07:44:21;97926.16;;;15.27;100.00
55604;BME280;41468;48.838;9.330;2023-05-10T07:46:48;97921.13;;;15.18;100.00
55604;BME280;41468;48.838;9.330;2023-05-10T07:49:15;97933.53;;;15.37;98.27
55604;BME280;41468;48.838;9.330;2023-05-10T07:51:42;97930.72;;;15.41;100.00
55604;BME280;41468;48.838;9.330;2023-05-10T07:54:09;97931.72;;;15.58;100.00
55604;BME280;41468;48.838;9.330;2023-05-10T07:56:35;97933.56;;;15.68;97.08
55604;BME280;41468;48.838;9.330;2023-05-10T07:59:03;97939.69;;;15.86;98.66
55604;BME280;41468;48.838;9.330;2023-05-10T08:01:35;97935.38;;;15.85;92.31
55604;BME280;41468;48.838;9.330;2023-05-10T08:04:02;97937.13;;;15.68;97.09
55604;BME280;41468;48.838;9.330;2023-05-10T08:06:29;97934.22;;;15.83;99.43
55604;BME280;41468;48.838;9.330;2023-05-10T08:08:57;97934.78;;;15.67;99.74
55604;BME280;41468;48.838;9.330;2023-05-10T08:11:24;97930.78;;;15.75;99.13
55604;BME280;41468;48.838;9.330;2023-05-10T08:13:51;97927.34;;;15.64;99.00
55604;BME280;41468;48.838;9.330;2023-05-10T08:16:18;97930.84;;;15.72;98.42
55604;BME280;41468;48.838;9.330;2023-05-10T08:18:46;97938.28;;;15.71;96.71
55604;BME280;41468;48.838;9.330;2023-05-10T08:21:14;97939.09;;;15.72;97.16
55604;BME280;41468;48.838;9.330;2023-05-10T08:23:41;97943.53;;;15.58;96.40
55604;BME280;41468;48.838;9.330;2023-05-10T08:26:10;97947.75;;;15.70;95.44
55604;BME280;41468;48.838;9.330;2023-05-10T08:28:37;97948.13;;;15.72;92.58
55604;BME280;41468;48.838;9.330;2023-05-10T08:31:04;97943.84;;;15.64;91.31
55604;BME280;41468;48.838;9.330;2023-05-10T08:33:31;97946.72;;;15.53;90.01
55604;BME280;41468;48.838;9.330;2023-05-10T08:35:58;97940.78;;;15.55;91.32
55604;BME280;41468;48.838;9.330;2023-05-10T08:38:25;97947.66;;;15.39;90.29
55604;BME280;41468;48.838;9.330;2023-05-10T08:40:54;97944.69;;;15.57;93.57
55604;BME280;41468;48.838;9.330;2023-05-10T08:43:28;97949.38;;;15.64;91.64
55604;BME280;41468;48.838;9.330;2023-05-10T08:45:55;97947.84;;;15.59;92.55
55604;BME280;41468;48.838;9.330;2023-05-10T08:48:24;97946.69;;;15.57;93.30
55604;BME280;41468;48.838;9.330;2023-05-10T08:50:53;97947.75;;;15.70;90.89
55604;BME280;41468;48.838;9.330;2023-05-10T08:53:24;97950.91;;;15.65;88.06
55604;BME280;41468;48.838;9.330;2023-05-10T08:55:53;97945.78;;;15.67;90.49
55604;BME280;41468;48.838;9.330;2023-05-10T08:58:19;97957.97;;;15.70;89.77
55604;BME280;41468;48.838;9.330;2023-05-10T09:00:48;97961.16;;;15.64;88.28
55604;BME280;41468;48.838;9.330;2023-05-10T09:03:15;97966.72;;;15.57;87.02
55604;BME280;41468;48.838;9.330;2023-05-10T09:05:42;97970.53;;;15.71;85.77
55604;BME280;41468;48.838;9.330;2023-05-10T09:08:13;97960.31;;;15.71;86.16
55604;BME280;41468;48.838;9.330;2023-05-10T09:10:43;97967.16;;;15.52;87.26
55604;BME280;41468;48.838;9.330;2023-05-10T09:13:10;97966.22;;;15.66;86.26
55604;BME280;41468;48.838;9.330;2023-05-10T09:15:38;97963.75;;;15.79;88.27
55604;BME280;41468;48.838;9.330;2023-05-10T09:18:05;97963.19;;;15.95;88.45
55604;BME280;41468;48.838;9.330;2023-05-10T09:20:31;97976.50;;;16.30;85.67
55604;BME280;41468;48.838;9.330;2023-05-10T09:22:58;97969.75;;;16.35;85.07
55604;BME280;41468;48.838;9.330;2023-05-10T09:25:25;97964.97;;;16.39;83.52
55604;BME280;41468;48.838;9.330;2023-05-10T09:27:52;97969.34;;;16.64;80.42
55604;BME280;41468;48.838;9.330;2023-05-10T09:30:26;97970.13;;;16.64;83.36
55604;BME280;41468;48.838;9.330;2023-05-10T09:32:53;97976.13;;;16.86;83.01
55604;BME280;41468;48.838;9.330;2023-05-10T09:35:23;97980.56;;;16.80;81.95
55604;BME280;41468;48.838;9.330;2023-05-10T09:37:55;97979.78;;;16.76;79.40
55604;BME280;41468;48.838;9.330;2023-05-10T09:40:24;97977.03;;;16.80;81.66
55604;BME280;41468;48.838;9.330;2023-05-10T09:43:02;97978.34;;;16.95;81.79
55604;BME280;41468;48.838;9.330;2023-05-10T09:45:30;97976.72;;;16.97;80.81
55604;BME280;41468;48.838;9.330;2023-05-10T09:47:57;97980.53;;;17.07;76.03
55604;BME280;41468;48.838;9.330;2023-05-10T09:50:26;97977.53;;;16.98;77.61
55604;BME280;41468;48.838;9.330;2023-05-10T09:52:56;97982.69;;;16.96;79.05
55604;BME280;41468;48.838;9.330;2023-05-10T09:55:42;97982.19;;;16.77;77.30
55604;BME280;41468;48.838;9.330;2023-05-10T09:58:13;97983.75;;;17.02;79.94
55604;BME280;41468;48.838;9.330;2023-05-10T10:00:42;97975.41;;;17.06;78.69
55604;BME280;41468;48.838;9.330;2023-05-10T10:03:18;97974.72;;;17.25;78.45
55604;BME280;41468;48.838;9.330;2023-05-10T10:05:47;97982.94;;;17.29;77.88
55604;BME280;41468;48.838;9.330;2023-05-10T10:08:15;97980.00;;;17.83;79.98
55604;BME280;41468;48.838;9.330;2023-05-10T10:10:42;97986.44;;;17.76;75.74
55604;BME280;41468;48.838;9.330;2023-05-10T10:13:12;97988.50;;;17.02;75.92
55604;BME280;41468;48.838;9.330;2023-05-10T10:15:39;97980.25;;;16.71;76.04
55604;BME280;41468;48.838;9.330;2023-05-10T10:18:07;97989.28;;;17.02;76.92
55604;BME280;41468;48.838;9.330;2023-05-10T10:20:48;97986.75;;;16.88;78.42
55604;BME280;41468;48.838;9.330;2023-05-10T10:23:14;97981.78;;;16.75;79.12
55604;BME280;41468;48.838;9.330;2023-05-10T10:25:43;97978.72;;;16.70;79.14
55604;BME280;41468;48.838;9.330;2023-05-10T10:28:38;97980.38;;;16.64;81.26
55604;BME280;41468;48.838;9.330;2023-05-10T10:31:23;97984.13;;;16.50;80.81
55604;BME280;41468;48.838;9.330;2023-05-10T10:34:01;97972.66;;;16.24;79.33
55604;BME280;41468;48.838;9.330;2023-05-10T10:36:30;97979.25;;;16.30;77.75
55604;BME280;41468;48.838;9.330;2023-05-10T10:39:01;97976.16;;;16.55;77.11
55604;BME280;41468;48.838;9.330;2023-05-10T10:41:41;97985.06;;;16.67;77.88
55604;BME280;41468;48.838;9.330;2023-05-10T10:47:09;97982.47;;;16.83;77.77
55604;BME280;41468;48.838;9.330;2023-05-10T10:52:27;97979.84;;;16.72;75.46
55604;BME280;41468;48.838;9.330;2023-05-10T10:57:54;97979.34;;;16.54;76.79
55604;BME280;41468;48.838;9.330;2023-05-10T11:00:31;97985.94;;;16.60;76.28
55604;BME280;41468;48.838;9.330;2023-05-10T11:03:11;97983.13;;;16.64;77.36
55604;BME280;41468;48.838;9.330;2023-05-10T11:05:47;97983.53;;;16.62;76.15
55604;BME280;41468;48.838;9.330;2023-05-10T11:08:25;98000.31;;;17.02;74.19
55604;BME280;41468;48.838;9.330;2023-05-10T11:13:38;97994.50;;;17.43;69.55
55604;BME280;41468;48.838;9.330;2023-05-10T11:16:20;97991.91;;;17.33;69.69
55604;BME280;41468;48.838;9.330;2023-05-10T11:19:03;98000.34;;;17.26;70.88
55604;BME280;41468;48.838;9.330;2023-05-10T11:21:31;98001.41;;;17.32;70.69
55604;BME280;41468;48.838;9.330;2023-05-10T11:24:01;97993.91;;;17.09;70.42
55604;BME280;41468;48.838;9.330;2023-05-10T11:26:34;97989.75;;;16.97;74.06
55604;BME280;41468;48.838;9.330;2023-05-10T11:29:01;97986.38;;;16.86;72.91
55604;BME280;41468;48.838;9.330;2023-05-10T11:31:29;97990.22;;;16.92;72.16
55604;BME280;41468;48.838;9.330;2023-05-10T11:33:58;97996.88;;;16.67;72.32
55604;BME280;41468;48.838;9.330;2023-05-10T11:36:35;97997.72;;;16.91;73.74
55604;BME280;41468;48.838;9.330;2023-05-10T11:39:03;97997.59;;;16.71;73.44
55604;BME280;41468;48.838;9.330;2023-05-10T11:41:30;97993.13;;;16.81;72.99
55604;BME280;41468;48.838;9.330;2023-05-10T11:43:58;97999.09;;;16.76;72.01
55604;BME280;41468;48.838;9.330;2023-05-10T11:46:27;97998.19;;;16.86;72.17
55604;BME280;41468;48.838;9.330;2023-05-10T11:48:57;98002.66;;;16.76;73.31
55604;BME280;41468;48.838;9.330;2023-05-10T11:51:24;98003.03;;;16.78;74.56
55604;BME280;41468;48.838;9.330;2023-05-10T11:53:55;98007.78;;;16.74;72.40
55604;BME280;41468;48.838;9.330;2023-05-10T11:56:22;98010.91;;;16.80;71.35
55604;BME280;41468;48.838;9.330;2023-05-10T11:58:55;98015.63;;;16.76;70.94
55604;BME280;41468;48.838;9.330;2023-05-10T12:01:23;98018.78;;;16.78;69.54
55604;BME280;41468;48.838;9.330;2023-05-10T12:03:51;98022.59;;;16.88;69.59
55604;BME280;41468;48.838;9.330;2023-05-10T12:06:19;98022.91;;;16.63;69.90
55604;BME280;41468;48.838;9.330;2023-05-10T12:08:48;98029.72;;;16.54;68.73
55604;BME280;41468;48.838;9.330;2023-05-10T12:11:19;98026.41;;;16.36;68.71
55604;BME280;41468;48.838;9.330;2023-05-10T12:13:47;98020.91;;;16.36;68.17
55604;BME280;41468;48.838;9.330;2023-05-10T12:16:21;98020.69;;;16.23;66.84
55604;BME280;41468;48.838;9.330;2023-05-10T12:18:49;98021.84;;;16.22;66.54
55604;BME280;41468;48.838;9.330;2023-05-10T12:21:19;98030.56;;;16.17;68.11
55604;BME280;41468;48.838;9.330;2023-05-10T12:23:48;98022.03;;;16.08;68.35
55604;BME280;41468;48.838;9.330;2023-05-10T12:26:16;98035.09;;;16.34;68.14
55604;BME280;41468;48.838;9.330;2023-05-10T12:28:43;98030.50;;;16.24;70.81
55604;BME280;41468;48.838;9.330;2023-05-10T12:31:10;98038.50;;;16.15;67.88
55604;BME280;41468;48.838;9.330;2023-05-10T12:33:42;98044.31;;;16.21;69.98
55604;BME280;41468;48.838;9.330;2023-05-10T12:36:10;98038.50;;;16.15;68.82
55604;BME280;41468;48.838;9.330;2023-05-10T12:38:39;98048.56;;;16.25;68.17
55604;BME280;41468;48.838;9.330;2023-05-10T12:41:12;98040.22;;;16.32;70.28
55604;BME280;41468;48.838;9.330;2023-05-10T12:43:40;98044.66;;;16.26;69.73
55604;BME280;41468;48.838;9.330;2023-05-10T12:46:12;98053.28;;;16.28;69.28
55604;BME280;41468;48.838;9.330;2023-05-10T12:48:40;98050.34;;;16.43;70.00
55604;BME280;41468;48.838;9.330;2023-05-10T12:51:07;98044.47;;;16.41;69.86
55604;BME280;41468;48.838;9.330;2023-05-10T12:53:39;98051.03;;;16.50;67.71
55604;BME280;41468;48.838;9.330;2023-05-10T12:56:09;98051.13;;;16.43;69.87
55604;BME280;41468;48.838;9.330;2023-05-10T12:58:40;98047.50;;;16.50;68.75
55604;BME280;41468;48.838;9.330;2023-05-10T13:01:07;98047.50;;;16.50;66.73
55604;BME280;41468;48.838;9.330;2023-05-10T13:03:35;98045.09;;;16.52;65.91
55604;BME280;41468;48.838;9.330;2023-05-10T13:06:02;98045.06;;;16.55;66.65
55604;BME280;41468;48.838;9.330;2023-05-10T13:08:28;98049.69;;;16.62;66.09
55604;BME280;41468;48.838;9.330;2023-05-10T13:11:00;98046.75;;;16.76;66.11
55604;BME280;41468;48.838;9.330;2023-05-10T13:13:27;98044.59;;;16.91;66.01
55604;BME280;41468;48.838;9.330;2023-05-10T13:15:54;98043.00;;;16.94;67.77
55604;BME280;41468;48.838;9.330;2023-05-10T13:18:20;98041.31;;;17.00;64.76
55604;BME280;41468;48.838;9.330;2023-05-10T13:20:47;98044.06;;;17.00;66.68
55604;BME280;41468;48.838;9.330;2023-05-10T13:23:15;98049.50;;;16.80;66.52
55604;BME280;41468;48.838;9.330;2023-05-10T13:25:42;98045.84;;;16.87;65.11
55604;BME280;41468;48.838;9.330;2023-05-10T13:28:09;98042.84;;;16.77;65.02